Time;durP1;ratioP1;P1;durP2;ratioP2;P2;SDS_P1;SDS_P2;PMS_P1;PMS_P2;Temp;Humidity;BMP_temperature;BMP_pressure;BME280_temperature;BME280_humidity;BME280_pressure;Samples;Min_cycle;Max_cycle;Signal;HPM_P1;HPM_P2
2023/10/10 00:00:27;;;;;;;25.13;16.55;;;18.00;99.90;;;;;;5051887;28;20033;-70
2023/10/10 00:02:54;;;;;;;21.10;14.45;;;17.90;99.90;;;;;;5051501;28;20499;-69
2023/10/10 00:05:32;;;;;;;21.50;16.17;;;17.90;99.90;;;;;;5053040;28;20017;-70
2023/10/10 00:07:59;;;;;;;24.33;16.95;;;17.90;99.90;;;;;;5053248;28;20025;-70
2023/10/10 00:10:27;;;;;;;20.73;15.27;;;17.90;99.90;;;;;;5053037;28;20017;-70
2023/10/10 00:12:54;;;;;;;19.45;15.05;;;17.90;99.90;;;;;;5052707;28;20491;-70
2023/10/10 00:15:26;;;;;;;18.13;15.30;;;17.90;99.90;;;;;;5052181;28;20017;-70
2023/10/10 00:17:59;;;;;;;21.83;15.73;;;17.90;99.90;;;;;;5051428;28;20083;-70
2023/10/10 00:20:28;;;;;;;21.88;16.05;;;17.90;99.90;;;;;;5052813;28;20100;-70
2023/10/10 00:22:58;;;;;;;18.85;13.77;;;17.90;99.90;;;;;;5052447;28;20522;-69
2023/10/10 00:25:30;;;;;;;22.83;15.18;;;17.90;99.90;;;;;;5052678;28;20478;-70
2023/10/10 00:28:04;;;;;;;18.30;14.30;;;17.80;99.90;;;;;;5052453;28;20063;-69
2023/10/10 00:30:34;;;;;;;19.02;14.02;;;17.80;99.90;;;;;;5052640;28;20025;-70
2023/10/10 00:33:04;;;;;;;18.05;14.63;;;17.80;99.90;;;;;;5052320;28;20025;-70
2023/10/10 00:35:33;;;;;;;19.03;14.50;;;17.80;99.90;;;;;;5052598;28;20517;-70
2023/10/10 00:37:59;;;;;;;17.75;14.95;;;17.80;99.90;;;;;;5051082;28;20021;-70
2023/10/10 00:40:30;;;;;;;19.30;14.27;;;17.70;99.90;;;;;;5052309;28;20032;-70
2023/10/10 00:42:59;;;;;;;20.48;14.15;;;17.70;99.90;;;;;;5051166;28;20060;-70
2023/10/10 00:45:36;;;;;;;20.02;13.85;;;17.70;99.90;;;;;;5052297;28;20020;-70
2023/10/10 00:48:02;;;;;;;18.05;13.65;;;17.70;99.90;;;;;;5051982;28;20025;-70
2023/10/10 00:50:34;;;;;;;19.42;14.88;;;17.70;99.90;;;;;;5050852;28;20465;-70
2023/10/10 00:53:06;;;;;;;19.73;15.05;;;17.70;99.90;;;;;;5050825;28;20049;-70
2023/10/10 00:55:36;;;;;;;18.67;14.90;;;17.60;99.90;;;;;;5052393;28;20453;-70
2023/10/10 00:58:04;;;;;;;23.15;15.45;;;17.60;99.90;;;;;;5050678;28;20078;-70
2023/10/10 01:00:34;;;;;;;21.98;15.73;;;17.60;99.90;;;;;;5052140;28;20033;-70
2023/10/10 01:03:07;;;;;;;20.00;16.02;;;17.60;99.90;;;;;;5052045;28;20032;-70
2023/10/10 01:05:43;;;;;;;23.20;16.92;;;17.60;99.90;;;;;;5052142;28;20548;-70
2023/10/10 01:08:09;;;;;;;27.73;17.65;;;17.60;99.90;;;;;;5050511;28;20315;-70
2023/10/10 01:10:59;;;;;;;25.55;17.60;;;17.60;99.90;;;;;;5050737;28;20126;-70
2023/10/10 01:13:24;;;;;;;23.77;17.65;;;17.60;99.90;;;;;;5051466;28;20029;-70
2023/10/10 01:15:50;;;;;;;22.70;17.20;;;17.60;99.90;;;;;;5051824;28;20039;-70
2023/10/10 01:18:15;;;;;;;22.02;15.73;;;17.60;99.90;;;;;;5051649;28;20028;-70
2023/10/10 01:21:02;;;;;;;23.42;18.00;;;17.50;99.90;;;;;;5051587;28;20029;-70
2023/10/10 01:23:28;;;;;;;22.77;17.10;;;17.50;99.90;;;;;;5049979;28;20039;-70
2023/10/10 01:26:05;;;;;;;23.08;16.50;;;17.50;99.90;;;;;;5052010;28;20103;-70
2023/10/10 01:28:33;;;;;;;25.35;17.98;;;17.50;99.90;;;;;;5051468;28;20029;-70
2023/10/10 01:31:21;;;;;;;24.73;17.25;;;17.50;99.90;;;;;;5052019;28;20017;-70
2023/10/10 01:33:47;;;;;;;23.08;16.13;;;17.50;99.90;;;;;;5050937;28;20515;-69
2023/10/10 01:36:18;;;;;;;23.13;16.88;;;17.40;99.90;;;;;;5050538;28;20061;-70
2023/10/10 01:38:56;;;;;;;27.70;18.70;;;17.40;99.90;;;;;;5051661;28;20024;-70
2023/10/10 01:41:38;;;;;;;25.50;17.75;;;17.40;99.90;;;;;;5051788;28;20040;-70
2023/10/10 01:44:12;;;;;;;19.52;17.15;;;17.30;99.90;;;;;;5051081;28;20029;-69
2023/10/10 01:46:42;;;;;;;23.13;16.85;;;17.30;99.90;;;;;;5051753;28;20029;-70
2023/10/10 01:49:13;;;;;;;23.17;17.02;;;17.20;99.90;;;;;;5050968;28;20044;-70
2023/10/10 01:51:43;;;;;;;21.52;16.15;;;17.20;99.90;;;;;;5050424;28;20048;-70
2023/10/10 01:54:19;;;;;;;25.42;16.83;;;17.20;99.90;;;;;;5050923;28;20051;-70
2023/10/10 01:56:45;;;;;;;20.15;15.18;;;17.20;99.90;;;;;;5051741;28;20029;-69
2023/10/10 01:59:14;;;;;;;16.33;12.77;;;17.10;99.90;;;;;;5051125;28;20104;-70
2023/10/10 02:01:43;;;;;;;20.10;12.80;;;17.10;99.90;;;;;;5051584;28;20095;-70
2023/10/10 02:04:10;;;;;;;15.77;10.70;;;17.10;99.90;;;;;;5049647;28;20487;-70
2023/10/10 02:06:39;;;;;;;14.45;10.93;;;17.00;99.90;;;;;;5051874;28;20029;-70
2023/10/10 02:11:54;;;;;;;12.77;10.60;;;16.90;99.90;;;;;;5051839;28;20091;-70
2023/10/10 02:14:27;;;;;;;15.18;10.75;;;16.80;99.90;;;;;;5050910;28;20029;-70
2023/10/10 02:16:59;;;;;;;12.70;10.23;;;16.80;99.90;;;;;;5051727;28;20035;-70
2023/10/10 02:19:39;;;;;;;12.98;9.32;;;16.80;99.90;;;;;;5049503;28;20127;-70
2023/10/10 02:22:23;;;;;;;13.73;9.35;;;16.80;99.90;;;;;;5051464;28;20021;-70
2023/10/10 02:25:37;;;;;;;12.50;9.35;;;16.70;99.90;;;;;;5050636;28;20040;-70
2023/10/10 02:27:54;;;;;;;13.70;9.30;;;16.70;99.90;;;;;;5054005;28;20399;-70
2023/10/10 02:30:22;;;;;;;11.52;8.75;;;16.70;99.90;;;;;;5050851;28;20044;-70
2023/10/10 02:32:48;;;;;;;13.18;10.27;;;16.60;99.90;;;;;;5051355;28;20024;-70
2023/10/10 02:35:26;;;;;;;14.93;11.38;;;16.60;99.90;;;;;;5050735;28;20391;-70
2023/10/10 02:37:54;;;;;;;15.80;12.88;;;16.60;99.90;;;;;;5053032;28;20055;-70
2023/10/10 02:40:30;;;;;;;17.98;12.68;;;16.60;99.90;;;;;;5053068;28;20108;-70
2023/10/10 02:45:44;;;;;;;17.67;13.52;;;16.50;99.90;;;;;;5054963;28;20037;-70
2023/10/10 02:48:20;;;;;;;27.50;14.40;;;16.50;99.90;;;;;;5053478;28;20116;-70
2023/10/10 02:50:46;;;;;;;19.30;14.55;;;16.50;99.90;;;;;;5052908;28;20052;-70
2023/10/10 02:53:14;;;;;;;20.45;14.40;;;16.50;99.90;;;;;;5053345;28;20025;-70
2023/10/10 02:55:50;;;;;;;20.03;13.67;;;16.50;99.90;;;;;;5054318;28;20139;-70
2023/10/10 02:58:22;;;;;;;18.55;13.80;;;16.50;99.90;;;;;;5054441;28;20021;-70
2023/10/10 03:00:57;;;;;;;16.23;13.65;;;16.40;99.90;;;;;;5053217;28;20479;-70
2023/10/10 03:03:25;;;;;;;22.55;14.40;;;16.40;99.90;;;;;;5054142;28;20442;-70
2023/10/10 03:05:58;;;;;;;19.17;14.25;;;16.40;99.90;;;;;;5054364;28;20525;-69
2023/10/10 03:08:34;;;;;;;18.85;13.93;;;16.40;99.90;;;;;;5052919;28;20021;-70
2023/10/10 03:11:14;;;;;;;19.23;13.73;;;16.40;99.90;;;;;;5054369;28;20020;-69
2023/10/10 03:13:54;;;;;;;17.02;12.70;;;16.30;99.90;;;;;;5052946;28;20460;-70
2023/10/10 03:24:29;;;;;;;12.65;9.13;;;16.30;99.90;;;;;;5053569;28;20032;-70
2023/10/10 03:27:01;;;;;;;11.70;8.60;;;16.20;99.90;;;;;;5054119;28;20061;-70
2023/10/10 03:30:17;;;;;;;12.63;8.52;;;16.20;99.90;;;;;;5053486;28;20021;-69
2023/10/10 03:32:25;;;;;;;13.07;9.77;;;16.10;99.90;;;;;;5056155;28;20036;-70
2023/10/10 03:35:04;;;;;;;24.63;14.13;;;16.10;99.90;;;;;;5052202;28;20418;-69
2023/10/10 03:37:40;;;;;;;47.05;16.83;;;16.00;99.90;;;;;;5054136;28;20064;-69
2023/10/10 05:24:42;;;;;;;77.45;30.52;;;16.10;99.90;;;;;;5051311;28;20513;-70
2023/10/10 05:27:10;;;;;;;88.07;32.38;;;16.10;99.90;;;;;;5052280;28;20075;-70
2023/10/10 05:29:37;;;;;;;95.57;32.83;;;16.10;99.90;;;;;;5050039;28;20228;-70
2023/10/10 05:32:08;;;;;;;46.17;26.98;;;16.10;99.90;;;;;;5050632;28;20112;-70
2023/10/10 05:34:34;;;;;;;60.00;28.33;;;16.10;99.90;;;;;;5051327;28;20025;-70
2023/10/10 05:37:00;;;;;;;69.00;32.63;;;16.10;99.90;;;;;;5051793;28;20028;-70
2023/10/10 05:39:32;;;;;;;47.05;27.20;;;16.10;99.90;;;;;;5049928;28;20029;-69
2023/10/10 05:41:59;;;;;;;70.32;35.45;;;16.10;99.90;;;;;;5050663;28;20029;-69
2023/10/10 05:44:25;;;;;;;68.38;32.15;;;16.10;99.90;;;;;;5050972;28;20021;-70
2023/10/10 05:46:52;;;;;;;66.03;33.10;;;16.10;99.90;;;;;;5051801;28;20025;-70
2023/10/10 05:49:18;;;;;;;72.47;35.83;;;16.10;99.90;;;;;;5051376;28;20554;-70
2023/10/10 05:51:44;;;;;;;69.35;33.75;;;16.10;99.90;;;;;;5051442;28;20100;-70
2023/10/10 05:54:11;;;;;;;63.03;33.22;;;16.10;99.90;;;;;;5051488;28;20037;-70
2023/10/10 05:56:37;;;;;;;66.03;32.15;;;16.10;99.90;;;;;;5050122;28;20021;-70
2023/10/10 05:59:04;;;;;;;77.57;35.95;;;16.10;99.90;;;;;;5051241;28;20029;-70
2023/10/10 06:01:30;;;;;;;62.17;34.38;;;16.10;99.90;;;;;;5050256;28;20507;-70
2023/10/10 06:03:57;;;;;;;78.28;36.22;;;16.10;99.90;;;;;;5051300;28;20079;-70
2023/10/10 06:06:24;;;;;;;64.18;35.95;;;16.10;99.90;;;;;;5051255;28;20107;-70
2023/10/10 06:09:00;;;;;;;59.00;35.47;;;16.20;99.90;;;;;;5050294;28;20029;-70
2023/10/10 06:11:26;;;;;;;59.30;35.03;;;16.10;99.90;;;;;;5049954;28;20642;-70
2023/10/10 06:13:53;;;;;;;51.83;30.80;;;16.20;99.90;;;;;;5054817;28;20049;-70
2023/10/10 06:16:20;;;;;;;57.55;35.08;;;16.10;99.90;;;;;;5053765;28;20021;-70
2023/10/10 06:18:47;;;;;;;60.78;35.08;;;16.20;99.90;;;;;;5055344;28;20028;-70
2023/10/10 06:21:16;;;;;;;48.60;33.63;;;16.20;99.90;;;;;;5054697;28;20025;-70
2023/10/10 06:23:44;;;;;;;54.33;31.85;;;16.10;99.90;;;;;;5055214;28;20546;-70
2023/10/10 06:26:12;;;;;;;57.50;35.63;;;16.10;99.90;;;;;;5054766;28;20056;-70
2023/10/10 06:28:45;;;;;;;60.80;35.00;;;16.10;99.90;;;;;;5055282;28;20017;-70
2023/10/10 06:31:17;;;;;;;54.25;33.95;;;16.10;99.90;;;;;;5054636;28;20613;-70
2023/10/10 06:33:43;;;;;;;52.95;34.35;;;16.00;99.90;;;;;;5055188;28;20436;-71
2023/10/10 06:38:59;;;;;;;52.50;34.03;;;15.90;99.90;;;;;;5055040;28;20454;-70
2023/10/10 06:41:27;;;;;;;67.22;38.20;;;15.90;99.90;;;;;;5053242;28;20021;-72
2023/10/10 06:43:53;;;;;;;65.22;40.97;;;15.80;99.90;;;;;;5054894;28;20075;-71
2023/10/10 06:46:18;;;;;;;58.67;37.47;;;15.80;99.90;;;;;;5054196;28;20025;-70
2023/10/10 06:48:47;;;;;;;69.10;43.80;;;15.80;99.90;;;;;;5054508;28;20104;-71
2023/10/10 06:51:21;;;;;;;70.63;43.08;;;15.70;99.90;;;;;;5052760;28;20407;-70
2023/10/10 06:53:48;;;;;;;64.90;41.40;;;15.70;99.90;;;;;;5054724;28;20025;-72
2023/10/10 06:56:17;;;;;;;58.30;39.03;;;15.70;99.90;;;;;;5054189;28;20021;-70
2023/10/10 06:58:44;;;;;;;51.25;35.22;;;15.70;99.90;;;;;;5054712;28;20029;-70
2023/10/10 07:01:11;;;;;;;51.13;35.50;;;15.70;99.90;;;;;;5052940;28;20033;-70
2023/10/10 07:03:41;;;;;;;53.35;35.33;;;15.70;99.90;;;;;;5054690;28;20036;-70
2023/10/10 07:06:08;;;;;;;60.47;38.45;;;15.70;99.90;;;;;;5053864;28;20463;-70
2023/10/10 07:08:34;;;;;;;53.55;35.45;;;15.80;99.90;;;;;;5054551;28;20388;-70
2023/10/10 07:11:01;;;;;;;51.35;34.97;;;15.80;99.90;;;;;;5053719;28;20165;-70
2023/10/10 07:13:30;;;;;;;47.70;33.53;;;15.80;99.90;;;;;;5054243;28;20021;-70
2023/10/10 07:15:59;;;;;;;47.35;32.42;;;15.80;99.90;;;;;;5052380;28;20483;-70
2023/10/10 07:18:25;;;;;;;42.10;29.60;;;15.80;99.90;;;;;;5054304;28;20020;-70
2023/10/10 07:21:25;;;;;;;38.95;28.48;;;15.80;99.90;;;;;;5052205;28;20025;-70
2023/10/10 07:24:05;;;;;;;38.07;25.47;;;15.80;99.90;;;;;;5052686;28;20033;-70
2023/10/10 07:26:40;;;;;;;42.15;30.70;;;15.80;99.90;;;;;;5053948;28;20109;-70
2023/10/10 07:31:53;;;;;;;41.92;28.05;;;15.80;99.90;;;;;;5054015;28;20070;-71
2023/10/10 07:34:24;;;;;;;37.50;25.80;;;15.80;99.90;;;;;;5052200;28;20049;-70
2023/10/10 07:36:50;;;;;;;37.85;27.73;;;15.90;99.90;;;;;;5053684;28;20025;-70
2023/10/10 07:39:36;;;;;;;41.75;29.25;;;15.90;99.90;;;;;;5053624;28;20070;-70
2023/10/10 07:42:03;;;;;;;37.83;26.83;;;15.90;99.90;;;;;;5052249;28;20033;-70
2023/10/10 07:44:30;;;;;;;35.63;25.60;;;16.00;99.90;;;;;;5053257;28;20354;-70
2023/10/10 07:49:40;;;;;;;35.70;26.65;;;15.90;99.90;;;;;;5053097;28;20102;-70
2023/10/10 07:52:06;;;;;;;33.35;22.92;;;15.90;99.90;;;;;;5053375;28;20032;-71
2023/10/10 07:54:43;;;;;;;34.13;26.02;;;15.90;99.90;;;;;;5053094;28;20599;-70
2023/10/10 07:57:17;;;;;;;29.58;22.10;;;16.00;99.90;;;;;;5053239;28;20029;-70
2023/10/10 07:59:46;;;;;;;30.85;23.45;;;16.00;99.90;;;;;;5053051;28;20573;-70
2023/10/10 08:02:24;;;;;;;31.30;22.92;;;16.00;99.90;;;;;;5053457;28;20434;-70
2023/10/10 08:05:00;;;;;;;30.45;21.83;;;15.90;99.90;;;;;;5052532;28;20017;-70
2023/10/10 08:07:27;;;;;;;32.75;23.88;;;15.90;99.90;;;;;;5051956;28;20029;-71
2023/10/10 08:10:13;;;;;;;30.70;21.55;;;16.00;99.90;;;;;;5052519;28;20028;-70
2023/10/10 08:12:39;;;;;;;29.60;21.73;;;16.00;99.90;;;;;;5053028;28;20025;-71
2023/10/10 08:15:20;;;;;;;32.70;21.92;;;16.10;99.90;;;;;;5052493;28;20044;-71
2023/10/10 08:17:52;;;;;;;27.13;20.02;;;16.10;99.90;;;;;;5053266;28;20098;-71
2023/10/10 08:23:05;;;;;;;28.98;21.15;;;16.20;99.90;;;;;;5053385;28;20048;-70
2023/10/10 08:25:32;;;;;;;26.30;20.05;;;16.30;99.90;;;;;;5050976;28;20017;-70
2023/10/10 08:28:00;;;;;;;30.83;21.42;;;16.30;99.90;;;;;;5051569;28;20518;-70
2023/10/10 08:30:26;;;;;;;24.90;19.60;;;16.30;99.90;;;;;;5051069;28;20039;-70
2023/10/10 08:32:57;;;;;;;28.90;21.10;;;16.30;99.90;;;;;;5053165;28;20078;-70
2023/10/10 08:35:25;;;;;;;24.80;18.38;;;16.40;99.90;;;;;;5051673;28;20083;-70
2023/10/10 08:37:51;;;;;;;29.20;19.13;;;16.40;99.90;;;;;;5052617;28;20483;-70
2023/10/10 08:40:21;;;;;;;24.25;18.45;;;16.50;99.90;;;;;;5052255;28;20031;-70
2023/10/10 08:42:50;;;;;;;26.23;17.92;;;16.50;99.90;;;;;;5051326;28;20052;-70
2023/10/10 08:45:24;;;;;;;23.90;17.00;;;16.50;99.90;;;;;;5051729;28;20033;-70
2023/10/10 08:48:12;;;;;;;24.65;17.42;;;16.60;99.90;;;;;;5052684;28;20021;-70
2023/10/10 08:50:42;;;;;;;18.52;14.30;;;16.60;99.90;;;;;;5050371;28;20072;-70
2023/10/10 08:53:12;;;;;;;24.08;15.48;;;16.70;99.90;;;;;;5052501;28;20013;-70
2023/10/10 08:55:40;;;;;;;23.50;16.42;;;16.70;99.90;;;;;;5051692;28;20086;-69
2023/10/10 08:58:07;;;;;;;25.33;16.98;;;16.70;99.90;;;;;;5052272;28;20021;-70
2023/10/10 09:00:34;;;;;;;26.73;17.10;;;16.80;99.90;;;;;;5051562;28;20472;-70
2023/10/10 09:02:59;;;;;;;22.10;16.58;;;16.80;99.90;;;;;;5052129;28;20028;-70
2023/10/10 09:05:28;;;;;;;25.65;15.52;;;16.80;99.90;;;;;;5051663;28;20017;-70
2023/10/10 09:07:54;;;;;;;24.55;17.67;;;16.90;99.90;;;;;;5052270;28;20096;-70
2023/10/10 09:10:30;;;;;;;21.02;16.80;;;17.00;99.90;;;;;;5051423;28;20052;-70
2023/10/10 09:12:56;;;;;;;21.95;17.58;;;17.00;99.90;;;;;;5052080;28;20096;-70
2023/10/10 09:15:23;;;;;;;19.08;14.73;;;17.10;99.90;;;;;;5051310;28;20024;-70
2023/10/10 09:17:55;;;;;;;20.35;15.40;;;17.20;99.90;;;;;;5052035;28;20391;-70
2023/10/10 09:20:28;;;;;;;20.92;15.25;;;17.20;99.90;;;;;;5051505;28;20028;-70
2023/10/10 09:22:58;;;;;;;20.27;15.52;;;17.30;99.90;;;;;;5051948;28;20028;-70
2023/10/10 09:25:48;;;;;;;21.23;15.90;;;17.30;99.90;;;;;;5051571;28;20033;-70
2023/10/10 09:28:16;;;;;;;21.80;14.87;;;17.30;99.90;;;;;;5052169;28;20029;-70
2023/10/10 09:30:50;;;;;;;21.23;14.48;;;17.40;99.90;;;;;;5051358;28;20110;-70
2023/10/10 09:33:23;;;;;;;20.55;14.73;;;17.50;99.90;;;;;;5051907;28;20514;-70
2023/10/10 09:35:58;;;;;;;22.35;14.02;;;17.60;99.90;;;;;;5049953;28;20025;-70
2023/10/10 09:38:33;;;;;;;22.58;15.25;;;17.60;99.90;;;;;;5050568;28;20024;-70
2023/10/10 09:44:27;;;;;;;17.08;12.65;;;17.80;99.90;;;;;;5051893;28;20410;-70
2023/10/10 09:49:46;;;;;;;17.02;13.63;;;18.00;99.90;;;;;;5055911;28;20099;-70
2023/10/10 09:55:53;;;;;;;21.75;15.23;;;18.20;99.90;;;;;;5055712;28;20106;-70
2023/10/10 10:06:00;;;;;;;21.65;15.90;;;18.50;99.90;;;;;;5054655;28;20036;-70
2023/10/10 10:09:09;;;;;;;24.60;16.08;;;18.60;99.90;;;;;;5054256;28;20021;-70
2023/10/10 10:12:19;;;;;;;23.27;15.52;;;18.70;99.90;;;;;;5016407;28;20036;-70
2023/10/10 10:15:12;;;;;;;20.42;15.93;;;18.90;99.90;;;;;;5054505;28;20045;-70
2023/10/10 10:18:11;;;;;;;22.52;15.50;;;19.00;99.90;;;;;;5054027;28;20029;-70
2023/10/10 10:20:46;;;;;;;18.73;14.38;;;19.10;99.90;;;;;;5054767;28;20025;-70
2023/10/10 10:23:47;;;;;;;16.48;12.95;;;19.20;99.90;;;;;;5055187;28;20093;-70
2023/10/10 10:26:22;;;;;;;21.10;15.20;;;19.40;99.90;;;;;;5054592;28;20021;-70
2023/10/10 10:28:56;;;;;;;19.88;14.45;;;19.50;99.90;;;;;;5054009;28;20029;-70
2023/10/10 10:31:29;;;;;;;20.10;14.88;;;19.60;99.90;;;;;;5054584;28;20021;-71
2023/10/10 10:34:05;;;;;;;21.00;14.82;;;19.70;99.90;;;;;;5054981;28;20040;-71
2023/10/10 10:36:45;;;;;;;19.90;14.45;;;19.80;99.90;;;;;;5054319;28;20028;-70
2023/10/10 10:39:18;;;;;;;19.40;14.15;;;19.90;99.90;;;;;;5054871;28;20061;-70
2023/10/10 10:41:51;;;;;;;18.92;14.10;;;20.10;99.90;;;;;;5054320;28;20029;-70
2023/10/10 10:44:28;;;;;;;19.73;14.60;;;20.10;99.90;;;;;;5053423;28;20522;-70
2023/10/10 10:46:56;;;;;;;19.83;13.73;;;20.20;99.90;;;;;;5054397;28;20021;-71
2023/10/10 10:49:22;;;;;;;16.38;12.85;;;20.30;99.90;;;;;;5054496;28;20045;-70
2023/10/10 10:51:52;;;;;;;21.58;14.57;;;20.40;99.90;;;;;;5054227;28;20028;-70
2023/10/10 10:55:18;;;;;;;20.10;12.80;;;20.50;99.90;;;;;;5054643;28;20025;-70
2023/10/10 10:57:27;;;;;;;17.27;12.40;;;20.60;99.90;;;;;;5053825;28;20499;-71
2023/10/10 10:59:55;;;;;;;18.38;13.65;;;20.60;99.90;;;;;;5052606;28;20021;-70
2023/10/10 11:02:30;;;;;;;17.85;13.65;;;20.70;99.90;;;;;;5054163;28;20067;-71
2023/10/10 11:04:57;;;;;;;16.42;12.30;;;20.70;99.90;;;;;;5054170;28;20021;-70
2023/10/10 11:07:29;;;;;;;14.23;11.35;;;20.80;99.90;;;;;;5054024;28;20023;-71
2023/10/10 11:10:06;;;;;;;18.42;12.43;;;20.90;99.90;;;;;;5052913;28;20115;-71
2023/10/10 11:12:33;;;;;;;19.10;13.40;;;21.00;99.90;;;;;;5054440;28;20043;-71
2023/10/10 11:15:06;;;;;;;20.08;14.07;;;21.10;99.90;;;;;;5053019;28;20031;-71
2023/10/10 11:17:38;;;;;;;19.10;12.95;;;21.10;99.90;;;;;;5054205;28;20033;-71
2023/10/10 11:20:28;;;;;;;20.00;12.65;;;21.20;99.90;;;;;;5053889;28;20025;-71
2023/10/10 11:23:07;;;;;;;16.67;12.43;;;21.30;99.90;;;;;;5054185;28;20502;-71
2023/10/10 11:25:45;;;;;;;18.27;11.98;;;21.30;99.90;;;;;;5052364;28;20094;-71
2023/10/10 11:28:21;;;;;;;18.75;12.75;;;21.40;99.90;;;;;;5052890;28;20025;-70
2023/10/10 11:30:52;;;;;;;17.27;12.23;;;21.40;99.90;;;;;;5053638;28;20444;-71
2023/10/10 11:36:29;;;;;;;16.75;11.88;;;21.60;99.90;;;;;;5053670;28;20036;-71
2023/10/10 11:39:10;;;;;;;17.45;12.13;;;21.80;99.90;;;;;;5052636;28;20020;-71
2023/10/10 11:41:37;;;;;;;20.85;12.40;;;21.90;99.90;;;;;;5053302;28;20055;-70
2023/10/10 11:44:03;;;;;;;19.05;11.95;;;22.00;99.90;;;;;;5053934;28;20033;-71
2023/10/10 11:46:30;;;;;;;15.48;11.45;;;22.00;99.90;;;;;;5053291;28;20035;-70
2023/10/10 11:48:55;;;;;;;18.35;11.10;;;22.10;99.90;;;;;;5053736;28;20017;-71
2023/10/10 11:51:37;;;;;;;16.55;9.75;;;22.20;99.90;;;;;;5051848;28;20036;-71
2023/10/10 11:54:03;;;;;;;14.43;10.13;;;22.40;99.90;;;;;;5053708;28;20021;-71
2023/10/10 11:56:34;;;;;;;16.50;11.30;;;22.50;99.90;;;;;;5053083;28;20159;-71
2023/10/10 11:59:09;;;;;;;16.75;10.43;;;22.60;99.90;;;;;;5053726;28;20036;-71
2023/10/10 12:01:54;;;;;;;15.73;9.60;;;22.60;99.90;;;;;;5053103;28;20025;-70
2023/10/10 12:04:32;;;;;;;15.30;10.95;;;22.70;99.90;;;;;;5053572;28;20049;-71
2023/10/10 12:06:59;;;;;;;13.95;10.35;;;22.70;99.90;;;;;;5052958;28;20021;-71
2023/10/10 12:09:29;;;;;;;14.80;10.40;;;22.70;99.90;;;;;;5052674;28;20078;-71
2023/10/10 12:12:15;;;;;;;19.38;10.38;;;22.70;99.90;;;;;;5050920;28;20021;-71
2023/10/10 12:14:42;;;;;;;13.95;9.38;;;22.80;99.90;;;;;;5053215;28;20503;-71
2023/10/10 12:17:08;;;;;;;18.30;11.30;;;22.90;99.90;;;;;;5051249;28;20499;-71
2023/10/10 12:19:37;;;;;;;14.68;10.13;;;22.90;99.90;;;;;;5053090;28;20475;-71
2023/10/10 12:22:15;;;;;;;15.10;10.07;;;23.00;99.90;;;;;;5051152;28;20112;-71
2023/10/10 12:24:41;;;;;;;15.73;10.80;;;23.10;99.90;;;;;;5051641;28;20506;-70
2023/10/10 12:27:07;;;;;;;15.80;10.25;;;23.10;99.90;;;;;;5052511;28;20059;-70
2023/10/10 12:29:39;;;;;;;18.33;10.98;;;23.10;99.90;;;;;;5053152;28;20017;-71
2023/10/10 12:32:15;;;;;;;15.55;11.65;;;23.20;99.90;;;;;;5050961;28;20070;-71
2023/10/10 12:34:43;;;;;;;14.15;10.05;;;23.10;99.90;;;;;;5052907;28;20048;-71
2023/10/10 12:37:09;;;;;;;16.02;10.52;;;23.10;99.90;;;;;;5052107;28;20021;-71
2023/10/10 12:39:37;;;;;;;17.13;10.15;;;23.10;99.90;;;;;;5052712;28;20263;-71
2023/10/10 12:42:02;;;;;;;16.48;11.50;;;23.10;99.90;;;;;;5052230;28;20487;-71
2023/10/10 12:44:28;;;;;;;14.73;9.98;;;23.20;99.90;;;;;;5052795;28;20025;-71
2023/10/10 12:46:54;;;;;;;16.30;10.32;;;23.30;99.90;;;;;;5052029;28;20024;-71
2023/10/10 12:49:28;;;;;;;16.67;11.35;;;23.30;99.90;;;;;;5050986;28;20584;-70
2023/10/10 12:51:56;;;;;;;17.35;10.48;;;23.40;99.90;;;;;;5051912;28;20021;-70
2023/10/10 12:54:27;;;;;;;15.10;10.35;;;23.40;99.90;;;;;;5052825;28;20621;-71
2023/10/10 12:56:58;;;;;;;17.77;10.48;;;23.50;99.90;;;;;;5050506;28;20094;-71
2023/10/10 12:59:28;;;;;;;17.58;11.00;;;23.60;99.90;;;;;;5051245;28;20032;-71
2023/10/10 13:01:56;;;;;;;17.95;9.75;;;23.60;99.90;;;;;;5051926;28;20059;-71
2023/10/10 13:04:21;;;;;;;14.52;9.68;;;23.60;99.90;;;;;;5052314;28;20024;-71
2023/10/10 13:06:51;;;;;;;14.65;9.23;;;23.70;99.90;;;;;;5051774;28;20043;-71
2023/10/10 13:09:19;;;;;;;14.32;8.75;;;23.80;99.90;;;;;;5052632;28;20017;-71
2023/10/10 13:11:44;;;;;;;14.30;9.38;;;23.80;99.90;;;;;;5051817;28;20426;-71
2023/10/10 13:14:15;;;;;;;16.15;9.93;;;23.90;99.90;;;;;;5052364;28;20024;-71
2023/10/10 13:19:11;;;;;;;13.80;9.30;;;24.00;99.30;;;;;;5052293;28;20025;-70
2023/10/10 13:21:37;;;;;;;14.18;8.30;;;24.00;99.00;;;;;;5051390;28;20499;-71
2023/10/10 13:24:09;;;;;;;13.40;9.48;;;24.00;98.90;;;;;;5051936;28;20021;-71
2023/10/10 13:26:39;;;;;;;15.43;9.43;;;24.10;98.80;;;;;;5051476;28;20025;-71
2023/10/10 13:29:05;;;;;;;19.40;8.75;;;24.10;98.70;;;;;;5050712;28;20032;-71
2023/10/10 13:31:31;;;;;;;16.15;9.43;;;24.20;98.70;;;;;;5051185;28;20021;-71
2023/10/10 13:33:58;;;;;;;15.43;9.07;;;24.10;98.20;;;;;;5051886;28;20023;-71
2023/10/10 13:36:24;;;;;;;13.82;9.20;;;24.10;97.80;;;;;;5051205;28;20036;-71
2023/10/10 13:38:53;;;;;;;16.33;8.70;;;24.00;98.10;;;;;;5051931;28;20490;-71
2023/10/10 13:41:20;;;;;;;12.40;8.57;;;24.00;98.00;;;;;;5051091;28;20035;-71
2023/10/10 13:43:47;;;;;;;14.30;8.45;;;24.00;97.80;;;;;;5051726;28;20021;-72
2023/10/10 13:46:14;;;;;;;13.88;8.15;;;24.00;97.90;;;;;;5051134;28;20025;-71
2023/10/10 13:48:40;;;;;;;12.43;8.32;;;24.00;97.80;;;;;;5051595;28;20045;-72
2023/10/10 13:51:07;;;;;;;13.32;7.72;;;24.00;97.40;;;;;;5049587;28;20037;-71
2023/10/10 13:53:34;;;;;;;13.60;7.95;;;23.90;97.40;;;;;;5051945;28;20100;-71
2023/10/10 13:56:03;;;;;;;13.25;7.75;;;23.90;97.60;;;;;;5051085;28;20053;-71
2023/10/10 13:58:29;;;;;;;13.70;7.82;;;23.90;97.90;;;;;;5051608;28;20071;-71
2023/10/10 14:00:55;;;;;;;11.95;7.47;;;23.90;98.00;;;;;;5049965;28;20062;-71
2023/10/10 14:03:35;;;;;;;12.20;7.75;;;24.00;97.90;;;;;;5051175;28;20017;-71
2023/10/10 14:06:07;;;;;;;10.43;6.55;;;24.00;97.60;;;;;;5051014;28;20067;-71
2023/10/10 14:08:33;;;;;;;11.70;7.68;;;24.00;97.40;;;;;;5051665;28;20022;-71
2023/10/10 14:11:00;;;;;;;11.60;7.78;;;24.00;97.20;;;;;;5049763;28;20033;-71
2023/10/10 14:13:29;;;;;;;10.95;6.85;;;24.00;97.10;;;;;;5050089;28;20074;-71
2023/10/10 14:15:56;;;;;;;13.68;7.75;;;24.00;97.40;;;;;;5049786;28;20025;-72
2023/10/10 14:18:26;;;;;;;12.35;6.97;;;24.00;97.30;;;;;;5051685;28;20098;-72
2023/10/10 14:20:53;;;;;;;13.38;7.47;;;23.90;97.30;;;;;;5051067;28;20107;-72
2023/10/10 14:23:22;;;;;;;12.85;7.35;;;23.90;97.50;;;;;;5049886;28;20017;-72
2023/10/10 14:25:49;;;;;;;11.00;7.10;;;23.80;97.70;;;;;;5051028;28;20498;-72
2023/10/10 14:28:19;;;;;;;10.68;7.20;;;23.80;98.00;;;;;;5051052;28;20017;-71
2023/10/10 14:30:49;;;;;;;11.93;7.45;;;23.70;97.90;;;;;;5050887;28;20504;-71
2023/10/10 14:33:16;;;;;;;15.85;7.53;;;23.60;97.80;;;;;;5052008;28;20025;-72
2023/10/10 14:35:41;;;;;;;11.23;7.63;;;23.60;97.80;;;;;;5054744;28;20110;-72
2023/10/10 14:38:12;;;;;;;12.70;7.20;;;23.50;97.60;;;;;;5053506;28;20029;-72
2023/10/10 14:40:38;;;;;;;13.20;7.20;;;23.50;98.00;;;;;;5054719;28;20021;-71
2023/10/10 14:43:06;;;;;;;11.23;7.00;;;23.50;98.30;;;;;;5054457;28;20028;-72
2023/10/10 14:45:32;;;;;;;12.95;6.95;;;23.50;98.30;;;;;;5054791;28;20517;-72
2023/10/10 14:47:58;;;;;;;13.60;7.30;;;23.50;98.30;;;;;;5052927;28;20024;-71
2023/10/10 14:50:24;;;;;;;11.18;6.32;;;23.50;98.30;;;;;;5054669;28;20495;-72
2023/10/10 14:52:53;;;;;;;14.30;6.80;;;23.60;98.40;;;;;;5054237;28;20021;-72
2023/10/10 14:55:25;;;;;;;11.63;5.78;;;23.60;98.10;;;;;;5054653;28;20082;-71
2023/10/10 14:57:55;;;;;;;10.70;6.40;;;23.60;97.40;;;;;;5054088;28;20399;-72
2023/10/10 15:00:27;;;;;;;10.23;6.17;;;23.70;96.90;;;;;;5054699;28;20017;-72
2023/10/10 15:02:54;;;;;;;13.93;6.63;;;23.70;96.00;;;;;;5053925;28;20479;-72
2023/10/10 15:05:23;;;;;;;10.32;5.80;;;23.70;96.00;;;;;;5054519;28;20087;-72
2023/10/10 15:07:52;;;;;;;11.40;6.03;;;23.80;95.60;;;;;;5053868;28;20020;-72
2023/10/10 15:10:25;;;;;;;10.65;6.38;;;23.70;95.60;;;;;;5054544;28;20052;-72
2023/10/10 15:12:54;;;;;;;11.30;5.88;;;23.80;95.60;;;;;;5053937;28;20029;-71
2023/10/10 15:15:22;;;;;;;13.80;6.55;;;23.80;95.60;;;;;;5053248;28;20090;-72
2023/10/10 15:17:49;;;;;;;11.05;6.35;;;23.80;95.00;;;;;;5053666;28;20105;-72
2023/10/10 15:20:15;;;;;;;9.85;5.93;;;23.70;94.90;;;;;;5054458;28;20036;-72